createdAt,value
2022-09-20T00:01:47.981Z,92.16
2022-09-20T00:04:11.866Z,93.85
2022-09-20T00:06:36.503Z,92.62
2022-09-20T00:09:01.443Z,91.73
2022-09-20T00:11:29.300Z,92.52
2022-09-20T00:13:56.264Z,91.07
2022-09-20T00:16:22.577Z,91.29
2022-09-20T00:18:49.523Z,92.76
2022-09-20T00:21:18.334Z,91.21
2022-09-20T00:23:41.873Z,92.47
2022-09-20T00:26:06.546Z,93.21
2022-09-20T00:28:33.735Z,93.02
2022-09-20T00:30:58.551Z,92.89
2022-09-20T00:33:22.369Z,92.88
2022-09-20T00:35:45.568Z,92.28
2022-09-20T00:38:10.121Z,91.95
2022-09-20T00:40:33.734Z,90.99
2022-09-20T00:42:57.305Z,93.09
2022-09-20T00:45:25.823Z,92.10
2022-09-20T00:47:55.771Z,90.78
2022-09-20T00:50:36.899Z,91.40
2022-09-20T00:53:07.026Z,92.49
2022-09-20T00:55:31.325Z,91.87
2022-09-20T00:57:55.930Z,90.50
2022-09-20T01:00:19.828Z,91.71
2022-09-20T01:02:49.521Z,91.54
2022-09-20T01:05:15.812Z,92.87
2022-09-20T01:07:40.210Z,92.27
2022-09-20T01:10:03.777Z,92.50
2022-09-20T01:12:32.058Z,92.29
2022-09-20T01:14:56.790Z,92.79
2022-09-20T01:17:22.965Z,91.63
2022-09-20T01:20:04.617Z,92.04
2022-09-20T01:22:45.550Z,92.77
2022-09-20T01:25:16.862Z,93.31
2022-09-20T01:27:45.350Z,93.02
2022-09-20T01:30:12.449Z,93.44
2022-09-20T01:32:50.912Z,93.18
2022-09-20T01:35:16.166Z,94.00
2022-09-20T01:37:56.268Z,92.50
2022-09-20T01:40:30.214Z,92.50
2022-09-20T01:43:07.810Z,92.67
2022-09-20T01:45:33.584Z,92.81
2022-09-20T01:48:11.107Z,91.67
2022-09-20T01:50:42.121Z,92.57
2022-09-20T01:53:41.715Z,93.10
2022-09-20T01:56:45.723Z,93.35
2022-09-20T01:59:46.571Z,94.39
2022-09-20T02:02:37.664Z,94.76
2022-09-20T02:05:41.458Z,94.03
2022-09-20T02:08:54.570Z,94.37
2022-09-20T02:11:20.283Z,95.32
2022-09-20T02:14:05.435Z,94.17
2022-09-20T02:16:50.319Z,96.32
2022-09-20T02:20:03.042Z,95.96
2022-09-20T02:22:42.419Z,95.25
2022-09-20T02:25:19.723Z,94.34
2022-09-20T02:27:56.950Z,94.85
2022-09-20T02:30:36.574Z,95.27
2022-09-20T02:33:33.055Z,93.66
2022-09-20T02:36:22.214Z,94.30
2022-09-20T02:39:01.345Z,93.48
2022-09-20T02:41:54.001Z,93.07
2022-09-20T02:44:38.637Z,93.67
2022-09-20T02:47:14.006Z,92.51
2022-09-20T02:49:55.004Z,92.79
2022-09-20T02:52:27.710Z,93.19
2022-09-20T02:55:00.016Z,95.15
2022-09-20T02:57:39.190Z,94.73
2022-09-20T03:00:06.827Z,94.82
2022-09-20T03:02:40.554Z,94.42
2022-09-20T03:05:18.484Z,94.52
2022-09-20T03:08:01.410Z,95.63
2022-09-20T03:10:35.590Z,94.32
2022-09-20T03:13:19.945Z,95.04
2022-09-20T03:15:59.292Z,94.92
2022-09-20T03:18:34.967Z,94.98
2022-09-20T03:21:13.586Z,95.70
2022-09-20T03:23:53.078Z,95.55
2022-09-20T03:26:33.550Z,97.52
2022-09-20T03:29:05.998Z,96.21
2022-09-20T03:31:49.096Z,95.73
2022-09-20T03:34:31.413Z,96.72
2022-09-20T03:37:15.152Z,97.35
2022-09-20T03:40:30.649Z,97.39
2022-09-20T03:42:55.338Z,98.04
2022-09-20T03:45:54.269Z,98.06
2022-09-20T03:49:13.531Z,98.37
2022-09-20T03:51:46.674Z,98.16
2022-09-20T03:55:04.153Z,96.97
2022-09-20T03:57:53.049Z,98.09
2022-09-20T04:00:25.222Z,99.04
2022-09-20T04:03:12.107Z,98.96
2022-09-20T04:05:48.298Z,97.94
2022-09-20T04:08:30.714Z,99.18
2022-09-20T04:11:07.910Z,97.83
2022-09-20T04:13:38.293Z,97.18
2022-09-20T04:16:20.226Z,97.13
2022-09-20T04:18:49.643Z,97.00
2022-09-20T04:21:23.786Z,97.08
2022-09-20T04:23:56.632Z,96.51
2022-09-20T04:26:27.858Z,96.05
2022-09-20T04:28:59.586Z,95.27
2022-09-20T04:31:38.022Z,94.17
2022-09-20T04:34:03.541Z,94.58
2022-09-20T04:36:57.738Z,94.85
2022-09-20T04:39:35.466Z,94.82
2022-09-20T04:43:09.684Z,94.95
2022-09-20T04:46:20.013Z,95.15
2022-09-20T04:49:33.733Z,95.07
2022-09-20T04:52:53.225Z,94.25
2022-09-20T04:55:47.586Z,93.75
2022-09-20T04:58:46.949Z,93.90
2022-09-20T05:02:11.506Z,92.30
2022-09-20T05:05:25.902Z,92.50
2022-09-20T05:08:45.217Z,92.69
2022-09-20T05:11:32.394Z,93.16
2022-09-20T05:14:24.777Z,93.16
2022-09-20T05:17:15.820Z,93.37
2022-09-20T05:20:14.744Z,94.09
2022-09-20T05:23:19.137Z,94.69
2022-09-20T05:26:15.024Z,95.55
2022-09-20T05:28:51.166Z,95.50
2022-09-20T05:31:25.671Z,96.09
2022-09-20T05:33:57.862Z,96.85
2022-09-20T05:36:34.542Z,96.80
2022-09-20T05:39:03.995Z,96.75
2022-09-20T05:41:37.866Z,96.85
2022-09-20T05:44:17.139Z,96.89
2022-09-20T05:46:55.967Z,97.76
2022-09-20T05:49:37.505Z,97.67
2022-09-20T05:52:34.311Z,96.75
2022-09-20T05:55:19.663Z,96.64
2022-09-20T05:58:01.402Z,96.29
2022-09-20T06:00:31.725Z,94.70
2022-09-20T06:03:07.137Z,95.92
2022-09-20T06:05:43.822Z,94.35
2022-09-20T06:08:32.307Z,94.88
2022-09-20T06:11:12.970Z,95.18
2022-09-20T06:14:03.893Z,94.60
2022-09-20T06:16:41.305Z,94.27
2022-09-20T06:19:20.416Z,93.74
2022-09-20T06:21:52.751Z,94.28
2022-09-20T06:24:35.399Z,94.35
2022-09-20T06:27:04.125Z,94.77
2022-09-20T06:29:32.290Z,93.98
2022-09-20T06:31:55.898Z,93.73
2022-09-20T06:34:20.845Z,94.88
2022-09-20T06:37:09.710Z,94.68
2022-09-20T06:40:02.254Z,93.98
2022-09-20T06:42:27.263Z,96.31
2022-09-20T06:44:50.982Z,94.62
2022-09-20T06:47:16.311Z,95.37
2022-09-20T06:49:42.443Z,95.00
2022-09-20T06:52:06.812Z,94.21
2022-09-20T06:54:30.727Z,93.92
2022-09-20T06:56:54.326Z,93.50
2022-09-20T06:59:18.085Z,94.47
2022-09-20T07:01:41.879Z,94.72
2022-09-20T07:04:06.254Z,95.38
2022-09-20T07:06:31.171Z,94.68
2022-09-20T07:08:54.704Z,94.93
2022-09-20T07:11:19.074Z,96.49
2022-09-20T07:13:42.714Z,97.01
2022-09-20T07:16:08.819Z,96.47
2022-09-20T07:18:33.620Z,94.59
2022-09-20T07:20:58.899Z,94.36
2022-09-20T07:23:24.046Z,93.94
2022-09-20T07:25:47.646Z,95.61
2022-09-20T07:28:11.189Z,92.55
2022-09-20T07:30:34.764Z,93.48
2022-09-20T07:32:58.290Z,92.22
2022-09-20T07:35:21.851Z,91.39
2022-09-20T07:37:45.722Z,91.42
2022-09-20T07:40:12.876Z,89.38
2022-09-20T07:42:36.450Z,90.11
2022-09-20T07:45:02.776Z,90.61
2022-09-20T07:47:27.982Z,90.19
2022-09-20T07:49:51.528Z,89.90
2022-09-20T07:52:15.418Z,90.74
2022-09-20T07:54:39.971Z,90.25
2022-09-20T07:57:05.764Z,91.23
2022-09-20T07:59:29.298Z,90.14
2022-09-20T08:01:52.960Z,88.73
2022-09-20T08:04:16.899Z,89.90
2022-09-20T08:06:43.466Z,87.60
2022-09-20T08:09:10.936Z,87.28
2022-09-20T08:11:36.257Z,87.49
2022-09-20T08:14:06.727Z,86.28
2022-09-20T08:16:32.796Z,86.97
2022-09-20T08:18:58.883Z,85.27
2022-09-20T08:21:22.547Z,85.29
2022-09-20T08:23:47.850Z,89.16
2022-09-20T08:26:13.726Z,87.11
2022-09-20T08:28:37.327Z,85.74
2022-09-20T08:31:09.466Z,86.07
2022-09-20T08:33:34.232Z,87.82
2022-09-20T08:35:58.102Z,87.37
2022-09-20T08:41:16.283Z,84.83
2022-09-20T08:43:45.595Z,83.03
2022-09-20T08:46:22.894Z,82.55
2022-09-20T08:48:47.174Z,81.71
2022-09-20T08:51:22.362Z,83.09
2022-09-20T08:53:50.549Z,83.06
2022-09-20T08:56:14.081Z,80.80
2022-09-20T08:58:39.031Z,79.98
2022-09-20T09:01:02.604Z,78.25
2022-09-20T09:03:29.374Z,78.58
2022-09-20T09:05:56.719Z,76.49
2022-09-20T09:08:23.809Z,76.65
2022-09-20T09:10:54.738Z,79.05
2022-09-20T09:13:26.792Z,77.41
2022-09-20T09:15:57.287Z,73.47
2022-09-20T09:18:20.934Z,71.25
2022-09-20T09:20:46.841Z,69.20
2022-09-20T09:23:25.631Z,71.24
2022-09-20T09:25:49.352Z,69.30
2022-09-20T09:28:16.329Z,69.41
2022-09-20T09:30:42.020Z,67.02
2022-09-20T09:33:35.010Z,68.17
2022-09-20T09:36:06.619Z,65.90
2022-09-20T09:38:32.151Z,69.02
2022-09-20T09:40:58.761Z,69.44
2022-09-20T09:43:27.291Z,65.67
2022-09-20T09:45:51.129Z,65.97
2022-09-20T09:48:22.556Z,68.28
2022-09-20T09:50:46.792Z,68.34
2022-09-20T09:53:16.563Z,68.61
2022-09-20T09:55:58.122Z,68.37
2022-09-20T09:58:39.170Z,66.19
2022-09-20T10:01:08.357Z,68.56
2022-09-20T10:03:48.886Z,67.45
2022-09-20T10:06:23.755Z,70.06
2022-09-20T10:09:04.766Z,69.42
2022-09-20T10:11:41.839Z,63.96
2022-09-20T10:14:25.386Z,64.12
2022-09-20T10:17:11.010Z,65.15
2022-09-20T10:19:56.934Z,65.93
2022-09-20T10:22:35.209Z,66.51
2022-09-20T10:25:13.144Z,66.89
2022-09-20T10:27:52.435Z,70.70
2022-09-20T10:30:20.172Z,67.13
2022-09-20T10:33:02.202Z,67.41
2022-09-20T10:35:33.090Z,69.06
2022-09-20T10:38:15.281Z,67.28
2022-09-20T10:41:11.638Z,67.74
2022-09-20T10:44:02.820Z,66.45
2022-09-20T10:46:44.161Z,70.48
2022-09-20T10:49:25.079Z,71.79
2022-09-20T10:52:01.794Z,72.45
2022-09-20T10:54:45.082Z,75.39
2022-09-20T10:57:49.911Z,75.48
2022-09-20T11:00:23.904Z,70.13
2022-09-20T11:03:03.580Z,75.27
2022-09-20T11:05:42.001Z,73.75
2022-09-20T11:08:13.078Z,74.05
2022-09-20T11:10:43.082Z,74.48
2022-09-20T11:13:20.206Z,72.35
2022-09-20T11:15:50.578Z,75.66
2022-09-20T11:18:23.608Z,78.77
2022-09-20T11:20:52.709Z,77.97
2022-09-20T11:23:21.089Z,79.50
2022-09-20T11:25:48.627Z,82.69
2022-09-20T11:28:20.553Z,82.22
2022-09-20T11:30:56.358Z,82.51
2022-09-20T11:33:26.632Z,82.42
2022-09-20T11:35:54.591Z,81.98
2022-09-20T11:38:24.930Z,83.42
2022-09-20T11:40:54.586Z,83.22
2022-09-20T11:43:21.175Z,84.27
2022-09-20T11:45:46.512Z,86.89
2022-09-20T11:48:18.534Z,91.27
2022-09-20T11:51:34.239Z,90.83
2022-09-20T11:54:29.158Z,89.69
2022-09-20T11:56:56.524Z,94.01
2022-09-20T11:59:35.166Z,90.04
2022-09-20T12:02:01.807Z,87.47
2022-09-20T12:04:33.906Z,85.80
2022-09-20T12:07:08.314Z,85.27
2022-09-20T12:09:36.272Z,83.63
2022-09-20T12:12:02.370Z,83.87
2022-09-20T12:14:32.329Z,86.84
2022-09-20T12:16:57.496Z,83.72
2022-09-20T12:19:40.325Z,81.25
2022-09-20T12:22:29.682Z,83.97
2022-09-20T12:26:00.555Z,85.29
2022-09-20T12:28:35.288Z,86.33
2022-09-20T12:31:41.832Z,83.37
2022-09-20T12:34:32.539Z,80.62
2022-09-20T12:37:24.148Z,80.06
2022-09-20T12:39:54.415Z,79.62
2022-09-20T12:42:31.068Z,81.83
2022-09-20T12:45:01.958Z,78.61
2022-09-20T12:47:30.636Z,76.49
2022-09-20T12:50:13.944Z,77.16
2022-09-20T12:52:57.113Z,76.42
2022-09-20T12:55:43.795Z,77.27
2022-09-20T12:58:24.265Z,75.93
2022-09-20T13:00:51.989Z,76.14
2022-09-20T13:03:32.030Z,74.38
2022-09-20T13:06:25.049Z,74.98
2022-09-20T13:08:52.771Z,76.63
2022-09-20T13:11:20.650Z,76.76
2022-09-20T13:13:49.143Z,76.62
2022-09-20T13:16:24.277Z,78.02
2022-09-20T13:18:51.715Z,78.07
2022-09-20T13:21:16.089Z,77.96
2022-09-20T13:23:50.045Z,76.15
2022-09-20T13:26:14.359Z,77.34
2022-09-20T13:28:48.262Z,79.44
2022-09-20T13:31:28.434Z,77.18
2022-09-20T13:33:53.811Z,76.96
2022-09-20T13:36:27.281Z,79.48
2022-09-20T13:38:51.155Z,78.33
2022-09-20T13:41:14.667Z,75.83
2022-09-20T13:43:41.586Z,77.33
2022-09-20T13:46:10.415Z,76.24
2022-09-20T13:48:34.135Z,76.88
2022-09-20T13:50:59.647Z,73.37
2022-09-20T13:53:42.403Z,76.22
2022-09-20T13:56:13.130Z,74.65
2022-09-20T13:58:38.339Z,74.99
2022-09-20T14:01:05.402Z,73.00
2022-09-20T14:03:31.191Z,74.28
2022-09-20T14:06:01.873Z,72.63
2022-09-20T14:08:29.154Z,74.52
2022-09-20T14:11:07.259Z,73.96
2022-09-20T14:13:32.532Z,70.99
2022-09-20T14:15:56.118Z,70.45
2022-09-20T14:18:22.466Z,73.89
2022-09-20T14:20:47.298Z,72.39
2022-09-20T14:23:23.653Z,72.77
2022-09-20T14:26:08.186Z,70.65
2022-09-20T14:28:31.754Z,68.54
2022-09-20T14:31:08.345Z,69.75
2022-09-20T14:33:32.100Z,71.24
2022-09-20T14:35:55.664Z,70.99
2022-09-20T14:38:26.035Z,72.94
2022-09-20T14:40:51.809Z,71.40
2022-09-20T14:43:27.028Z,70.02
2022-09-20T14:45:56.307Z,70.58
2022-09-20T14:48:40.618Z,71.42
2022-09-20T14:51:25.244Z,71.87
2022-09-20T14:53:52.829Z,70.58
2022-09-20T14:56:17.954Z,69.18
2022-09-20T14:59:13.975Z,75.08
2022-09-20T15:01:41.206Z,69.37
2022-09-20T15:04:11.089Z,70.81
2022-09-20T15:06:37.709Z,62.74
2022-09-20T15:09:02.833Z,62.77
2022-09-20T15:11:26.674Z,62.30
2022-09-20T15:13:50.155Z,63.75
2022-09-20T15:16:16.438Z,66.82
2022-09-20T15:18:43.860Z,65.79
2022-09-20T15:21:07.634Z,69.99
2022-09-20T15:23:31.169Z,70.85
2022-09-20T15:25:56.979Z,71.35
2022-09-20T15:28:20.662Z,74.28
2022-09-20T15:30:44.886Z,77.27
2022-09-20T15:33:08.461Z,78.57
2022-09-20T15:35:32.365Z,77.98
2022-09-20T15:37:55.870Z,78.40
2022-09-20T15:40:19.689Z,81.09
2022-09-20T15:42:45.935Z,80.42
2022-09-20T15:45:11.966Z,81.62
2022-09-20T15:47:35.606Z,81.62
2022-09-20T15:49:59.922Z,82.15
2022-09-20T15:52:25.531Z,81.39
2022-09-20T15:54:49.118Z,81.92
2022-09-20T15:57:12.630Z,82.85
2022-09-20T15:59:37.570Z,82.31
2022-09-20T16:02:01.522Z,82.27
2022-09-20T16:04:27.130Z,80.17
2022-09-20T16:06:51.431Z,81.31
2022-09-20T16:09:15.401Z,82.60
2022-09-20T16:11:39.080Z,80.81
2022-09-20T16:14:03.221Z,81.62
2022-09-20T16:16:30.305Z,82.70
2022-09-20T16:19:12.877Z,82.19
2022-09-20T16:21:37.590Z,84.26
2022-09-20T16:24:01.816Z,82.24
2022-09-20T16:26:27.810Z,83.76
2022-09-20T16:28:51.591Z,84.34
2022-09-20T16:34:09.411Z,80.41
2022-09-20T16:36:33.817Z,82.95
2022-09-20T16:38:57.586Z,82.12
2022-09-20T16:41:21.501Z,82.32
2022-09-20T16:43:46.347Z,82.33
2022-09-20T16:46:10.598Z,82.51
2022-09-20T16:48:34.143Z,82.46
2022-09-20T16:51:00.194Z,83.94
2022-09-20T16:53:23.766Z,82.71
2022-09-20T16:55:47.351Z,83.42
2022-09-20T16:58:11.563Z,83.13
2022-09-20T17:00:35.243Z,83.85
2022-09-20T17:02:58.870Z,82.31
2022-09-20T17:05:22.428Z,83.07
2022-09-20T17:07:47.378Z,83.66
2022-09-20T17:10:11.790Z,82.21
2022-09-20T17:12:41.495Z,82.96
2022-09-20T17:15:06.299Z,83.84
2022-09-20T17:17:29.798Z,83.16
2022-09-20T17:19:53.349Z,82.54
2022-09-20T17:22:17.440Z,82.57
2022-09-20T17:24:42.438Z,82.95
2022-09-20T17:27:07.023Z,82.39
2022-09-20T17:29:30.644Z,83.16
2022-09-20T17:31:58.858Z,83.27
2022-09-20T17:34:22.775Z,82.67
2022-09-20T17:36:47.498Z,83.39
2022-09-20T17:39:13.028Z,83.37
2022-09-20T17:41:38.518Z,83.47
2022-09-20T17:44:08.081Z,83.81
2022-09-20T17:46:32.661Z,83.80
2022-09-20T17:48:58.354Z,84.14
2022-09-20T17:51:22.303Z,84.08
2022-09-20T17:53:46.791Z,84.72
2022-09-20T17:56:13.197Z,84.53
2022-09-20T17:58:38.125Z,84.88
2022-09-20T18:01:12.449Z,84.34
2022-09-20T18:03:37.564Z,85.11
2022-09-20T18:06:01.168Z,84.83
2022-09-20T18:08:24.746Z,84.83
2022-09-20T18:10:58.603Z,84.61
2022-09-20T18:13:22.262Z,84.33
2022-09-20T18:15:47.770Z,84.93
2022-09-20T18:18:11.434Z,84.78
2022-09-20T18:20:34.954Z,85.27
2022-09-20T18:22:58.504Z,85.16
2022-09-20T18:25:24.021Z,85.55
2022-09-20T18:27:47.700Z,85.84
2022-09-20T18:30:12.503Z,86.74
2022-09-20T18:32:37.463Z,86.91
2022-09-20T18:35:01.535Z,87.86
2022-09-20T18:37:25.184Z,88.05
2022-09-20T18:39:49.547Z,87.58
2022-09-20T18:42:13.150Z,88.48
2022-09-20T18:44:37.014Z,87.86
2022-09-20T18:47:03.337Z,89.36
2022-09-20T18:49:29.123Z,87.96
2022-09-20T18:51:52.656Z,87.71
2022-09-20T18:54:16.754Z,87.11
2022-09-20T18:56:42.878Z,86.16
2022-09-20T18:59:09.172Z,85.84
2022-09-20T19:02:13.912Z,86.69
2022-09-20T19:05:11.964Z,87.49
2022-09-20T19:07:49.083Z,87.00
2022-09-20T19:10:21.238Z,86.38
2022-09-20T19:12:54.930Z,87.17
2022-09-20T19:15:47.084Z,87.26
2022-09-20T19:18:29.010Z,88.02
2022-09-20T19:21:00.584Z,88.49
2022-09-20T19:23:42.929Z,88.48
2022-09-20T19:26:14.937Z,87.47
2022-09-20T19:28:42.691Z,87.90
2022-09-20T19:31:07.242Z,87.79
2022-09-20T19:33:31.619Z,87.47
2022-09-20T19:35:59.155Z,87.82
2022-09-20T19:38:38.582Z,87.52
2022-09-20T19:41:20.914Z,87.13
2022-09-20T19:44:14.382Z,87.89
2022-09-20T19:46:53.190Z,87.90
2022-09-20T19:49:22.130Z,87.79
2022-09-20T19:51:47.726Z,87.37
2022-09-20T19:54:14.939Z,86.44
2022-09-20T19:56:48.584Z,87.85
2022-09-20T19:59:13.605Z,87.31
2022-09-20T20:01:37.984Z,87.40
2022-09-20T20:04:03.775Z,87.84
2022-09-20T20:06:33.483Z,88.30
2022-09-20T20:09:06.123Z,87.68
2022-09-20T20:11:40.922Z,87.93
2022-09-20T20:14:16.536Z,87.55
2022-09-20T20:16:56.312Z,87.73
2022-09-20T20:19:47.145Z,86.85
2022-09-20T20:22:23.828Z,87.31
2022-09-20T20:24:53.349Z,86.94
2022-09-20T20:27:16.910Z,87.59
2022-09-20T20:29:41.294Z,87.70
2022-09-20T20:32:04.954Z,88.07
2022-09-20T20:34:28.478Z,88.23
2022-09-20T20:36:52.583Z,87.78
2022-09-20T20:39:16.168Z,88.58
2022-09-20T20:41:41.656Z,87.87
2022-09-20T20:44:06.351Z,87.70
2022-09-20T20:46:33.130Z,87.16
2022-09-20T20:48:56.866Z,87.06
2022-09-20T20:51:23.049Z,87.04
2022-09-20T20:53:49.110Z,87.31
2022-09-20T20:56:16.332Z,87.81
2022-09-20T20:58:43.921Z,87.19
2022-09-20T21:01:11.125Z,87.15
2022-09-20T21:03:35.630Z,87.35
2022-09-20T21:05:59.442Z,87.61
2022-09-20T21:08:23.015Z,87.31
2022-09-20T21:10:46.578Z,87.42
2022-09-20T21:13:10.156Z,87.78
2022-09-20T21:15:35.113Z,87.44
2022-09-20T21:17:58.748Z,87.02
2022-09-20T21:20:22.611Z,87.24
2022-09-20T21:22:46.194Z,87.51
2022-09-20T21:25:10.451Z,87.80
2022-09-20T21:27:36.154Z,87.67
2022-09-20T21:30:00.476Z,88.05
2022-09-20T21:32:25.411Z,88.44
2022-09-20T21:34:49.019Z,88.28
2022-09-20T21:37:12.724Z,88.22
2022-09-20T21:39:36.345Z,87.77
2022-09-20T21:41:59.917Z,88.46
2022-09-20T21:44:23.500Z,88.64
2022-09-20T21:46:48.454Z,88.45
2022-09-20T21:49:14.422Z,88.58
2022-09-20T21:51:39.230Z,89.67
2022-09-20T21:54:04.634Z,90.17
2022-09-20T21:56:31.357Z,89.39
2022-09-20T21:58:55.357Z,89.09
2022-09-20T22:01:21.412Z,88.37
2022-09-20T22:03:47.335Z,89.19
2022-09-20T22:06:15.825Z,88.38
2022-09-20T22:08:42.125Z,89.62
2022-09-20T22:11:11.173Z,88.03
2022-09-20T22:13:42.353Z,87.90
2022-09-20T22:16:08.331Z,88.05
2022-09-20T22:18:38.573Z,87.97
2022-09-20T22:21:08.169Z,87.05
2022-09-20T22:23:33.327Z,88.76
2022-09-20T22:26:01.642Z,88.32
2022-09-20T22:28:25.155Z,87.93
2022-09-20T22:30:48.746Z,88.66
2022-09-20T22:33:12.299Z,87.50
2022-09-20T22:35:35.827Z,87.52
2022-09-20T22:37:59.365Z,88.33
2022-09-20T22:40:24.321Z,88.06
2022-09-20T22:42:47.883Z,88.48
2022-09-20T22:45:12.429Z,88.35
2022-09-20T22:47:36.066Z,88.31
2022-09-20T22:49:59.583Z,87.68
2022-09-20T22:52:23.154Z,88.21
2022-09-20T22:54:46.778Z,87.85
2022-09-20T22:57:11.739Z,88.14
2022-09-20T22:59:35.261Z,87.51
2022-09-20T23:01:59.041Z,87.76
2022-09-20T23:04:23.547Z,88.14
2022-09-20T23:06:49.349Z,87.68
2022-09-20T23:09:16.002Z,87.89
2022-09-20T23:11:42.143Z,87.39
2022-09-20T23:14:07.951Z,87.95
2022-09-20T23:16:33.537Z,87.47
2022-09-20T23:18:59.385Z,88.30
2022-09-20T23:21:23.551Z,88.94
2022-09-20T23:23:48.131Z,89.06
2022-09-20T23:26:15.234Z,89.82
2022-09-20T23:28:41.025Z,88.79
2022-09-20T23:31:08.406Z,88.88
2022-09-20T23:33:32.006Z,88.49
2022-09-20T23:35:56.027Z,88.22
2022-09-20T23:38:19.529Z,88.35
2022-09-20T23:40:43.433Z,87.80
2022-09-20T23:43:06.964Z,88.05
2022-09-20T23:45:30.549Z,88.48
2022-09-20T23:47:55.486Z,88.10
2022-09-20T23:50:18.991Z,87.87
2022-09-20T23:52:42.527Z,88.00
2022-09-20T23:55:07.110Z,87.95
2022-09-20T23:57:30.638Z,87.74
2022-09-20T23:59:54.175Z,88.44
